»·PEaware :: WAT175 KSAN-KPHX

WAT175 :: KSAN-KPHX

FLIGHT INFORMATION

Flight Status: Arrived
Operator: Unknown
More flights by this operator :: More flights under this callsign
Pilot: Michael C. (27126)
Aircraft: BOEING 737-800
(B738)
More flights by this aircraft type
Origin: KSAN San Diego Intl-Lindbergh
United States
Destination: KPHX Phoenix Sky Harbor Intl
United States
More flights between these airports :: More routes between these airports
Route: ZZOOO2 IPL J18 BZA HOGGZ HYDRR1
File this flight plan on PilotEdge
Remarks: RMK / SIMBRIEF
Altitude:
(Current/Filed)
31,000ft
Speed:
(Current/Filed)
445kts
Departed: 18-Jul-20 08:30 PM
Arrived: 18-Jul-20 09:25 PM
Distance/Time
Traveled:
263nm/0:55
Distance/Time
To Go:
Arrived

Flight Plot

Page will automatically refresh every two minutes.


Map Options




Map Legend


Flown Route
Filed Route
Departure Airport
Arrival Airport
Navaid (VOR, NDB)
Fix

Horizontal Profiles

Position Reports

Time Latitude Longitude Heading Altitude Ground
Speed
18-Jul-20 19:57 32.734263 -117.204752 106 25ft 0kts
18-Jul-20 19:58 32.734263 -117.204752 106 25ft 0kts
18-Jul-20 19:59 32.734263 -117.204752 106 25ft 0kts
18-Jul-20 20:00 32.734263 -117.204752 106 25ft 0kts
18-Jul-20 20:01 32.734263 -117.204752 106 25ft 0kts
18-Jul-20 20:02 32.734263 -117.204752 106 25ft 0kts
18-Jul-20 20:03 32.734263 -117.204752 106 25ft 0kts
18-Jul-20 20:04 32.734263 -117.204752 106 25ft 0kts
18-Jul-20 20:05 32.734263 -117.204752 106 25ft 0kts
18-Jul-20 20:06 32.734263 -117.204752 106 25ft 0kts
18-Jul-20 20:07 32.734263 -117.204752 106 25ft 0kts
18-Jul-20 20:08 32.734263 -117.204752 106 25ft 0kts
18-Jul-20 20:09 32.734263 -117.204752 106 25ft 0kts
18-Jul-20 20:10 32.734263 -117.204752 106 25ft 0kts
18-Jul-20 20:11 32.734263 -117.204752 106 25ft 0kts
18-Jul-20 20:12 32.734263 -117.204752 106 25ft 0kts
18-Jul-20 20:13 32.734263 -117.204753 106 25ft 0kts
18-Jul-20 20:14 32.734263 -117.204753 106 25ft 0kts
18-Jul-20 20:15 32.734330 -117.205151 114 25ft 1kts
18-Jul-20 20:16 32.734070 -117.205549 357 25ft 1kts
18-Jul-20 20:17 32.734040 -117.205548 359 25ft 0kts
18-Jul-20 20:18 32.734053 -117.205548 359 25ft 0kts
18-Jul-20 20:19 32.735434 -117.204614 48 25ft 12kts
18-Jul-20 20:20 32.735266 -117.200966 105 25ft 12kts
18-Jul-20 20:21 32.734133 -117.196274 105 25ft 16kts
18-Jul-20 20:22 32.733022 -117.191758 107 25ft 12kts
18-Jul-20 20:23 32.731990 -117.187432 105 25ft 23kts
18-Jul-20 20:24 32.730579 -117.181619 106 25ft 18kts
18-Jul-20 20:25 32.729531 -117.176820 82 25ft 0kts
18-Jul-20 20:26 32.729531 -117.176820 82 25ft 0kts
18-Jul-20 20:27 32.729531 -117.176820 82 25ft 0kts
18-Jul-20 20:29 32.729531 -117.176820 82 25ft 0kts
18-Jul-20 20:30 32.731193 -117.179656 285 25ft 81kts
18-Jul-20 20:31 32.741479 -117.243174 246 2421ft 200kts
18-Jul-20 20:32 32.681748 -117.259423 159 5147ft 257kts
18-Jul-20 20:33 32.630477 -117.201670 110 8557ft 267kts
18-Jul-20 20:34 32.619073 -117.107415 95 10739ft 319kts
18-Jul-20 20:35 32.608892 -116.991346 96 12816ft 365kts
18-Jul-20 20:36 32.606690 -116.898038 81 15033ft 375kts
18-Jul-20 20:37 32.630618 -116.775040 80 17545ft 388kts
18-Jul-20 20:38 32.645993 -116.638293 83 18628ft 432kts
18-Jul-20 20:39 32.661226 -116.494670 84 20583ft 444kts
18-Jul-20 20:40 32.674943 -116.347200 85 22256ft 457kts
18-Jul-20 20:41 32.687629 -116.196109 85 23533ft 471kts
18-Jul-20 20:42 32.701608 -116.038432 85 24731ft 480kts
18-Jul-20 20:42 32.713389 -115.905191 85 25698ft 487kts
18-Jul-20 20:44 32.730256 -115.719047 85 27342ft 487kts
18-Jul-20 20:45 32.744582 -115.561261 85 28937ft 483kts
18-Jul-20 20:45 32.750686 -115.426713 89 29889ft 488kts
18-Jul-20 20:46 32.755258 -115.287608 88 30791ft 488kts
18-Jul-20 20:48 32.762783 -115.105838 88 30799ft 483kts
18-Jul-20 20:48 32.766697 -114.972176 89 30813ft 483kts
18-Jul-20 20:49 32.768330 -114.812826 90 30818ft 473kts
18-Jul-20 20:50 32.768863 -114.655040 90 30818ft 477kts
18-Jul-20 20:51 32.770239 -114.497083 90 30823ft 476kts
18-Jul-20 20:52 32.771963 -114.345296 90 30818ft 467kts
18-Jul-20 20:53 32.773797 -114.197989 90 30829ft 449kts
18-Jul-20 20:55 32.780664 -114.024877 84 30067ft 435kts
18-Jul-20 20:55 32.793671 -113.901965 83 28218ft 451kts
18-Jul-20 20:56 32.810203 -113.756052 79 25912ft 435kts
18-Jul-20 20:57 32.861028 -113.629849 51 24827ft 410kts
18-Jul-20 20:58 32.938039 -113.525056 49 24824ft 420kts
18-Jul-20 20:59 33.014545 -113.421946 49 22971ft 406kts
18-Jul-20 21:00 33.086398 -113.324782 49 21840ft 391kts
18-Jul-20 21:01 33.161163 -113.223517 49 21801ft 398kts
18-Jul-20 21:02 33.233374 -113.125179 52 19791ft 387kts
18-Jul-20 21:03 33.271141 -113.009411 83 18845ft 362kts
18-Jul-20 21:04 33.278483 -112.887714 87 17442ft 364kts
18-Jul-20 21:05 33.285371 -112.767895 81 16113ft 354kts
18-Jul-20 21:06 33.294668 -112.671365 81 15104ft 348kts
18-Jul-20 21:07 33.305163 -112.559384 81 14160ft 324kts
18-Jul-20 21:08 33.315029 -112.452982 81 12710ft 316kts
18-Jul-20 21:09 33.324561 -112.349029 82 11242ft 311kts
18-Jul-20 21:10 33.333644 -112.247966 82 10724ft 279kts
18-Jul-20 21:11 33.341652 -112.159580 81 10015ft 260kts
18-Jul-20 21:12 33.347758 -112.072850 88 8964ft 259kts
18-Jul-20 21:13 33.346146 -111.986521 89 7875ft 259kts
18-Jul-20 21:14 33.345504 -111.897051 89 5762ft 271kts
18-Jul-20 21:15 33.345552 -111.811416 88 5040ft 224kts
18-Jul-20 21:16 33.355054 -111.748446 21 5053ft 183kts
18-Jul-20 21:17 33.404442 -111.750661 349 5030ft 178kts
18-Jul-20 21:18 33.453962 -111.758256 348 5027ft 179kts
18-Jul-20 21:19 33.460313 -111.801583 240 4276ft 157kts
18-Jul-20 21:20 33.437399 -111.846378 239 3384ft 156kts
18-Jul-20 21:21 33.428480 -111.894065 270 3004ft 154kts
18-Jul-20 21:22 33.428780 -111.945874 269 2052ft 151kts
18-Jul-20 21:23 33.428824 -111.997041 269 1241ft 159kts
18-Jul-20 21:24 33.429085 -112.025158 341 1119ft 3kts
18-Jul-20 21:25 33.429342 -112.025289 331 1119ft 0kts
18-Jul-20 21:26 33.430356 -112.025469 359 1119ft 10kts
18-Jul-20 21:27 33.432562 -112.024591 30 1119ft 6kts
18-Jul-20 21:28 33.432895 -112.020184 89 1119ft 17kts
18-Jul-20 21:29 33.433492 -112.015360 79 1119ft 5kts
18-Jul-20 21:30 33.433502 -112.014734 89 1119ft 0kts

Navigation Log

Ident Type
Flight plan parsing failed, navigation log unavailable